Portada
Imágenes satélite Pronóstico 15 díasClimaPredicción Marítima Ciclones Rayo AeropuertosFAQ Noticias Acerca
El tiempo : Europa África América del Norte América del Sur Asia Australia-Oceanía Otros
Idiomas Contacto

Tarbes Lourdes, Francia

Ossun

latitud: 43-11N, longitud: 000-00W, altitud: 379 m


METAR: LFBT 252130Z AUTO 17003KT 9999 NSC 12/10 Q1024
TAF: LFBT 251700Z 2518/2618 VRB03KT CAVOK PROB30 TEMPO 2522/2608 5000 MIFG

Hora: 00:04 (22:04 UTC)

Observación

El informe se hizo hace 34 minutos, a las 21:30 UTC
Viento 3 kt del sur
Temperatura 12°C
Humedad 88%
Presión 1024 hPa
Visibilidad 10 km o más

Cambiar las unidades

Pronóstico

El informe se hizo hace 5 horas y 4 minutos, a las 17:00 UTC
Pronóstico válido del 25 a las 18 UTC al 26 a las 18 UTC
Viento 3 kt con dirección variable
Visibilidad 10 km o más
sin nubes por debajo de 1500 m y sin presencia de cumulonimbus.
Probabilidad 30% :
Temporalmente
del 25 a las 22 UTC al 26 a las 08 UTC
Visibilidad: 5000 m
baja niebla
La información que se ofrece en estas páginas está sujeta a una cláusula de exención de responsabilidad
El tiempo : Europa África América del Norte América del Sur Asia Australia-Oceanía Otros
Imágenes satélite Pronóstico 15 díasClimaPredicción Marítima Ciclones Rayo AeropuertosFAQ Idiomas Contacto Noticias Acerca